Pantodynamos — SVAG9 — position and weather

sailwx.info

Track history (hours):
 
Tides and Currents Weather Stations Pressure Air Temp Water Temp Dewpoint Dewpoint Depression Visibility Wind Speed Wind Dir Waves Ship Positions

Pantodynamos

Last reported at 2017-Nov-12 12:47 UTC. Time now 2017-Nov-22 09:15 UTC.
Position N 37°29' E 025°56'.
Warning: this ship's position is 9 days out of date.

Length 89 m; draft 4.2 m.

Type: Cargo ship. MMSI: 241296000.

Date/timePositionNaut miles runAvg speedWind from/ knotsBaromVisibWave heightAir tempDewpointWater temp
2017-Nov-12 12:47N 37°29' E 025°56'2 5.6
2017-Nov-12 12:31N 37°30' E 025°54'3 5.4
2017-Nov-12 11:58N 37°32' E 025°51'7 5.6
2017-Nov-12 10:43N 37°37' E 025°45'1 5.6
2017-Nov-12 10:28N 37°38' E 025°44'3 5.7
2017-Nov-12 09:59N 37°40' E 025°41'3 6.0
2017-Nov-12 09:30N 37°42' E 025°38'3 6.3
2017-Nov-12 09:00N 37°44' E 025°35'3 6.3
2017-Nov-12 08:30N 37°46' E 025°32'3 6.5
2017-Nov-12 08:00N 37°48' E 025°29'3 6.7
2017-Nov-12 07:30N 37°50' E 025°26'  
2017-Nov-08 05:48N 37°38' E 023°48'2 6.9
2017-Nov-08 05:28N 37°39' E 023°46'3 6.4
2017-Nov-08 05:00N 37°40' E 023°43'3 6.9
2017-Nov-08 04:30N 37°43' E 023°41'3 7.0
2017-Nov-08 04:00N 37°46' E 023°39'3 6.8
2017-Nov-08 03:30N 37°49' E 023°37'3 6.8
2017-Nov-08 03:00N 37°50' E 023°32'3 6.8
2017-Nov-08 02:30N 37°50' E 023°28'3 6.9
2017-Nov-08 02:00N 37°50' E 023°24'3 6.9
2017-Nov-08 01:30N 37°51' E 023°20'4 7.1
2017-Nov-08 01:00N 37°52' E 023°15'3 7.0
2017-Nov-08 00:30N 37°52' E 023°11'4 7.0
2017-Nov-08 00:00N 37°53' E 023°06'3 6.9
2017-Nov-07 23:30N 37°54' E 023°02'4 4.1
2017-Nov-07 22:28N 37°57' E 022°58'3 6.1
2017-Nov-07 22:00N 37°58' E 022°55'3 6.8
2017-Nov-07 21:30N 38°00' E 022°52'3 6.6
2017-Nov-07 21:01N 38°03' E 022°49'3 6.6
2017-Nov-07 20:30N 38°06' E 022°47'15 1.3
2017-Nov-07 09:00N 38°19' E 022°39'5 8.5
2017-Nov-07 08:28N 38°15' E 022°41'4 8.9
2017-Nov-07 08:00N 38°11' E 022°44'4 8.7
2017-Nov-07 07:31N 38°07' E 022°46'4 8.6
2017-Nov-07 07:01N 38°03' E 022°49'4 8.5
2017-Nov-07 06:30N 38°00' E 022°52'4 8.4
2017-Nov-07 06:01N 37°58' E 022°57'4 6.5
2017-Nov-07 05:26N 37°55' E 023°00'3 6.9
2017-Nov-07 05:01N 37°54' E 023°03'4 8.4
2017-Nov-07 04:31N 37°53' E 023°08'4 8.5
2017-Nov-07 04:00N 37°52' E 023°14'4 8.4
2017-Nov-07 03:31N 37°51' E 023°19'4 8.3
2017-Nov-07 03:01N 37°51' E 023°24'4 8.3
2017-Nov-07 02:31N 37°50' E 023°29'4 8.2
2017-Nov-07 02:01N 37°50' E 023°34'4 7.5
2017-Nov-07 01:31N 37°50' E 023°39'4 8.4
2017-Nov-07 01:01N 37°46' E 023°42'4 8.4
2017-Nov-07 00:31N 37°42' E 023°44'4 8.3
2017-Nov-07 00:00N 37°39' E 023°47'  
Track history (hours):
 
Tides and Currents Weather Stations Pressure Air Temp Water Temp Dewpoint Dewpoint Depression Visibility Wind Speed Wind Dir Waves Ship Positions

Pantodynamos

Last reported at 2017-Nov-12 12:47 UTC. Time now 2017-Nov-22 09:15 UTC.
Position N 37°29' E 025°56'.
Warning: this ship's position is 9 days out of date.

Length 89 m; draft 4.2 m.

Type: Cargo ship. MMSI: 241296000.

Date/timePositionNaut miles runAvg speedWind from/ knotsBaromVisibWave heightAir tempDewpointWater temp
2017-Nov-12 12:47N 37°29' E 025°56'2 5.6
2017-Nov-12 12:31N 37°30' E 025°54'3 5.4
2017-Nov-12 11:58N 37°32' E 025°51'7 5.6
2017-Nov-12 10:43N 37°37' E 025°45'1 5.6
2017-Nov-12 10:28N 37°38' E 025°44'3 5.7
2017-Nov-12 09:59N 37°40' E 025°41'3 6.0
2017-Nov-12 09:30N 37°42' E 025°38'3 6.3
2017-Nov-12 09:00N 37°44' E 025°35'3 6.3
2017-Nov-12 08:30N 37°46' E 025°32'3 6.5
2017-Nov-12 08:00N 37°48' E 025°29'3 6.7
2017-Nov-12 07:30N 37°50' E 025°26'  
2017-Nov-08 05:48N 37°38' E 023°48'2 6.9
2017-Nov-08 05:28N 37°39' E 023°46'3 6.4
2017-Nov-08 05:00N 37°40' E 023°43'3 6.9
2017-Nov-08 04:30N 37°43' E 023°41'3 7.0
2017-Nov-08 04:00N 37°46' E 023°39'3 6.8
2017-Nov-08 03:30N 37°49' E 023°37'3 6.8
2017-Nov-08 03:00N 37°50' E 023°32'3 6.8
2017-Nov-08 02:30N 37°50' E 023°28'3 6.9
2017-Nov-08 02:00N 37°50' E 023°24'3 6.9
2017-Nov-08 01:30N 37°51' E 023°20'4 7.1
2017-Nov-08 01:00N 37°52' E 023°15'3 7.0
2017-Nov-08 00:30N 37°52' E 023°11'4 7.0
2017-Nov-08 00:00N 37°53' E 023°06'3 6.9
2017-Nov-07 23:30N 37°54' E 023°02'4 4.1
2017-Nov-07 22:28N 37°57' E 022°58'3 6.1
2017-Nov-07 22:00N 37°58' E 022°55'3 6.8
2017-Nov-07 21:30N 38°00' E 022°52'3 6.6
2017-Nov-07 21:01N 38°03' E 022°49'3 6.6
2017-Nov-07 20:30N 38°06' E 022°47'15 1.3
2017-Nov-07 09:00N 38°19' E 022°39'5 8.5
2017-Nov-07 08:28N 38°15' E 022°41'4 8.9
2017-Nov-07 08:00N 38°11' E 022°44'4 8.7
2017-Nov-07 07:31N 38°07' E 022°46'4 8.6
2017-Nov-07 07:01N 38°03' E 022°49'4 8.5
2017-Nov-07 06:30N 38°00' E 022°52'4 8.4
2017-Nov-07 06:01N 37°58' E 022°57'4 6.5
2017-Nov-07 05:26N 37°55' E 023°00'3 6.9
2017-Nov-07 05:01N 37°54' E 023°03'4 8.4
2017-Nov-07 04:31N 37°53' E 023°08'4 8.5
2017-Nov-07 04:00N 37°52' E 023°14'4 8.4
2017-Nov-07 03:31N 37°51' E 023°19'4 8.3
2017-Nov-07 03:01N 37°51' E 023°24'4 8.3
2017-Nov-07 02:31N 37°50' E 023°29'4 8.2
2017-Nov-07 02:01N 37°50' E 023°34'4 7.5
2017-Nov-07 01:31N 37°50' E 023°39'4 8.4
2017-Nov-07 01:01N 37°46' E 023°42'4 8.4
2017-Nov-07 00:31N 37°42' E 023°44'4 8.3
2017-Nov-07 00:00N 37°39' E 023°47'  

Dump ship's entire track history